sensor_id;sensor_type;location;lat;lon;timestamp;pressure;altitude;pressure_sealevel;temperature;humidity
21431;BME280;10876;49.038;10.608;2023-05-08T00:01:28;99099.59;;;14.66;100.00
21431;BME280;10876;49.038;10.608;2023-05-08T00:03:56;99107.06;;;14.57;100.00
21431;BME280;10876;49.038;10.608;2023-05-08T00:06:23;99111.13;;;14.59;100.00
21431;BME280;10876;49.038;10.608;2023-05-08T00:12:29;99100.09;;;14.51;100.00
21431;BME280;10876;49.038;10.608;2023-05-08T01:37:14;99128.25;;;13.61;100.00
21431;BME280;10876;49.038;10.608;2023-05-08T01:39:44;99147.81;;;13.50;100.00
21431;BME280;10876;49.038;10.608;2023-05-08T01:42:20;99139.03;;;13.31;100.00
21431;BME280;10876;49.038;10.608;2023-05-08T01:44:53;99140.00;;;13.35;100.00
21431;BME280;10876;49.038;10.608;2023-05-08T01:47:26;99137.41;;;13.30;100.00
21431;BME280;10876;49.038;10.608;2023-05-08T01:49:57;99128.19;;;13.26;100.00
21431;BME280;10876;49.038;10.608;2023-05-08T01:52:33;99131.91;;;13.30;100.00
21431;BME280;10876;49.038;10.608;2023-05-08T01:55:03;99131.09;;;13.29;100.00
21431;BME280;10876;49.038;10.608;2023-05-08T01:57:33;99125.88;;;13.19;100.00
21431;BME280;10876;49.038;10.608;2023-05-08T02:00:03;99123.97;;;13.28;100.00
21431;BME280;10876;49.038;10.608;2023-05-08T02:02:31;99118.28;;;13.25;100.00
21431;BME280;10876;49.038;10.608;2023-05-08T02:05:01;99123.22;;;13.05;100.00
21431;BME280;10876;49.038;10.608;2023-05-08T02:07:32;99112.34;;;13.00;100.00
21431;BME280;10876;49.038;10.608;2023-05-08T02:10:03;99114.44;;;12.95;100.00
21431;BME280;10876;49.038;10.608;2023-05-08T02:12:31;99109.03;;;12.81;100.00
21431;BME280;10876;49.038;10.608;2023-05-08T02:15:01;99110.66;;;12.82;100.00
21431;BME280;10876;49.038;10.608;2023-05-08T02:17:29;99097.31;;;12.67;100.00
21431;BME280;10876;49.038;10.608;2023-05-08T02:19:58;99103.13;;;12.65;100.00
21431;BME280;10876;49.038;10.608;2023-05-08T02:22:29;99110.03;;;12.54;100.00
21431;BME280;10876;49.038;10.608;2023-05-08T02:25:02;99108.03;;;12.46;100.00
21431;BME280;10876;49.038;10.608;2023-05-08T02:27:29;99105.16;;;12.51;100.00
21431;BME280;10876;49.038;10.608;2023-05-08T02:29:57;99112.09;;;12.48;100.00
21431;BME280;10876;49.038;10.608;2023-05-08T02:32:26;99111.22;;;12.39;100.00
21431;BME280;10876;49.038;10.608;2023-05-08T02:34:55;99116.09;;;12.42;100.00
21431;BME280;10876;49.038;10.608;2023-05-08T02:37:23;99116.84;;;12.34;100.00
21431;BME280;10876;49.038;10.608;2023-05-08T02:39:55;99121.75;;;12.46;100.00
21431;BME280;10876;49.038;10.608;2023-05-08T02:42:25;99119.31;;;12.44;100.00
21431;BME280;10876;49.038;10.608;2023-05-08T02:44:52;99124.06;;;12.52;100.00
21431;BME280;10876;49.038;10.608;2023-05-08T02:47:22;99126.69;;;12.57;100.00
21431;BME280;10876;49.038;10.608;2023-05-08T02:49:53;99119.69;;;12.51;100.00
21431;BME280;10876;49.038;10.608;2023-05-08T02:52:26;99125.50;;;12.50;100.00
21431;BME280;10876;49.038;10.608;2023-05-08T02:54:57;99127.81;;;12.34;100.00
21431;BME280;10876;49.038;10.608;2023-05-08T02:57:32;99121.69;;;12.37;100.00
21431;BME280;10876;49.038;10.608;2023-05-08T03:00:04;99123.06;;;12.26;100.00
21431;BME280;10876;49.038;10.608;2023-05-08T03:02:37;99118.56;;;12.30;100.00
21431;BME280;10876;49.038;10.608;2023-05-08T03:05:12;99120.31;;;12.26;100.00
21431;BME280;10876;49.038;10.608;2023-05-08T03:07:41;99122.06;;;12.22;100.00
21431;BME280;10876;49.038;10.608;2023-05-08T03:10:11;99134.91;;;12.12;100.00
21431;BME280;10876;49.038;10.608;2023-05-08T03:12:44;99138.28;;;12.09;100.00
21431;BME280;10876;49.038;10.608;2023-05-08T03:15:17;99135.59;;;12.18;100.00
21431;BME280;10876;49.038;10.608;2023-05-08T03:17:45;99143.72;;;12.23;100.00
21431;BME280;10876;49.038;10.608;2023-05-08T03:20:15;99138.78;;;12.11;100.00
21431;BME280;10876;49.038;10.608;2023-05-08T03:22:45;99142.53;;;12.15;100.00
21431;BME280;10876;49.038;10.608;2023-05-08T03:25:15;99139.53;;;12.03;100.00
21431;BME280;10876;49.038;10.608;2023-05-08T03:27:49;99149.53;;;11.99;100.00
21431;BME280;10876;49.038;10.608;2023-05-08T03:30:21;99141.41;;;11.94;100.00
21431;BME280;10876;49.038;10.608;2023-05-08T03:32:49;99146.00;;;12.07;100.00
21431;BME280;10876;49.038;10.608;2023-05-08T03:35:18;99157.25;;;11.97;100.00
21431;BME280;10876;49.038;10.608;2023-05-08T03:37:45;99155.63;;;11.96;100.00
21431;BME280;10876;49.038;10.608;2023-05-08T03:40:12;99156.22;;;11.93;100.00
21431;BME280;10876;49.038;10.608;2023-05-08T03:42:39;99167.81;;;11.90;100.00
21431;BME280;10876;49.038;10.608;2023-05-08T03:45:10;99169.44;;;12.05;100.00
21431;BME280;10876;49.038;10.608;2023-05-08T03:47:37;99177.47;;;12.01;100.00
21431;BME280;10876;49.038;10.608;2023-05-08T03:50:07;99175.94;;;11.95;100.00
21431;BME280;10876;49.038;10.608;2023-05-08T03:52:34;99187.97;;;11.99;100.00
21431;BME280;10876;49.038;10.608;2023-05-08T03:55:01;99184.50;;;11.93;100.00
21431;BME280;10876;49.038;10.608;2023-05-08T03:57:33;99195.06;;;12.00;100.00
21431;BME280;10876;49.038;10.608;2023-05-08T04:00:05;99197.00;;;12.00;100.00
21431;BME280;10876;49.038;10.608;2023-05-08T04:02:44;99211.53;;;12.00;100.00
21431;BME280;10876;49.038;10.608;2023-05-08T04:05:27;99216.50;;;11.98;100.00
21431;BME280;10876;49.038;10.608;2023-05-08T04:08:02;99220.91;;;11.99;100.00
21431;BME280;10876;49.038;10.608;2023-05-08T04:10:33;99231.66;;;11.95;100.00
21431;BME280;10876;49.038;10.608;2023-05-08T04:13:06;99232.88;;;12.03;100.00
21431;BME280;10876;49.038;10.608;2023-05-08T04:15:37;99236.34;;;11.95;100.00
21431;BME280;10876;49.038;10.608;2023-05-08T04:18:08;99246.31;;;11.91;100.00
21431;BME280;10876;49.038;10.608;2023-05-08T04:23:13;99262.34;;;11.84;100.00
21431;BME280;10876;49.038;10.608;2023-05-08T04:25:41;99262.75;;;11.77;100.00
21431;BME280;10876;49.038;10.608;2023-05-08T04:28:10;99268.06;;;11.73;100.00
21431;BME280;10876;49.038;10.608;2023-05-08T04:30:38;99270.09;;;11.68;100.00
21431;BME280;10876;49.038;10.608;2023-05-08T04:33:07;99272.13;;;11.62;100.00
21431;BME280;10876;49.038;10.608;2023-05-08T04:35:34;99285.53;;;11.64;100.00
21431;BME280;10876;49.038;10.608;2023-05-08T04:38:01;99283.09;;;11.62;100.00
21431;BME280;10876;49.038;10.608;2023-05-08T04:40:28;99290.00;;;11.60;100.00
21431;BME280;10876;49.038;10.608;2023-05-08T04:42:55;99292.41;;;11.61;100.00
21431;BME280;10876;49.038;10.608;2023-05-08T04:45:22;99294.69;;;11.59;100.00
21431;BME280;10876;49.038;10.608;2023-05-08T04:47:48;99301.78;;;11.60;100.00
21431;BME280;10876;49.038;10.608;2023-05-08T04:50:16;99299.56;;;11.62;100.00
21431;BME280;10876;49.038;10.608;2023-05-08T04:52:43;99314.38;;;11.61;100.00
21431;BME280;10876;49.038;10.608;2023-05-08T04:55:10;99321.81;;;11.61;100.00
21431;BME280;10876;49.038;10.608;2023-05-08T04:57:36;99323.13;;;11.63;100.00
21431;BME280;10876;49.038;10.608;2023-05-08T05:00:04;99329.22;;;11.60;100.00
21431;BME280;10876;49.038;10.608;2023-05-08T05:02:31;99333.69;;;11.56;100.00
21431;BME280;10876;49.038;10.608;2023-05-08T05:04:58;99343.53;;;11.57;100.00
21431;BME280;10876;49.038;10.608;2023-05-08T05:07:26;99341.22;;;11.50;100.00
21431;BME280;10876;49.038;10.608;2023-05-08T05:09:53;99351.56;;;11.54;100.00
21431;BME280;10876;49.038;10.608;2023-05-08T05:12:20;99342.41;;;11.58;100.00
21431;BME280;10876;49.038;10.608;2023-05-08T05:14:46;99344.69;;;11.56;100.00
21431;BME280;10876;49.038;10.608;2023-05-08T05:17:13;99345.84;;;11.50;100.00
21431;BME280;10876;49.038;10.608;2023-05-08T05:19:40;99357.06;;;11.54;100.00
21431;BME280;10876;49.038;10.608;2023-05-08T05:22:06;99358.06;;;11.58;100.00
21431;BME280;10876;49.038;10.608;2023-05-08T05:24:34;99358.50;;;11.65;100.00
21431;BME280;10876;49.038;10.608;2023-05-08T05:27:01;99365.00;;;11.69;100.00
21431;BME280;10876;49.038;10.608;2023-05-08T05:29:28;99369.50;;;11.65;100.00
21431;BME280;10876;49.038;10.608;2023-05-08T05:31:55;99379.44;;;11.75;100.00
21431;BME280;10876;49.038;10.608;2023-05-08T05:34:22;99382.72;;;11.77;100.00
21431;BME280;10876;49.038;10.608;2023-05-08T05:36:49;99392.28;;;11.79;100.00
21431;BME280;10876;49.038;10.608;2023-05-08T05:39:15;99400.19;;;11.81;100.00
21431;BME280;10876;49.038;10.608;2023-05-08T05:41:43;99405.41;;;11.82;100.00
21431;BME280;10876;49.038;10.608;2023-05-08T05:44:10;99407.91;;;11.79;100.00
21431;BME280;10876;49.038;10.608;2023-05-08T05:46:37;99401.94;;;11.77;100.00
21431;BME280;10876;49.038;10.608;2023-05-08T05:49:03;99409.25;;;11.81;100.00
21431;BME280;10876;49.038;10.608;2023-05-08T05:51:30;99410.56;;;11.84;100.00
21431;BME280;10876;49.038;10.608;2023-05-08T05:53:57;99414.72;;;11.81;100.00
21431;BME280;10876;49.038;10.608;2023-05-08T05:56:24;99436.84;;;11.90;100.00
21431;BME280;10876;49.038;10.608;2023-05-08T05:58:52;99424.97;;;11.76;100.00
21431;BME280;10876;49.038;10.608;2023-05-08T06:01:19;99432.53;;;11.84;100.00
21431;BME280;10876;49.038;10.608;2023-05-08T06:03:48;99441.84;;;11.88;100.00
21431;BME280;10876;49.038;10.608;2023-05-08T06:48:26;99518.75;;;12.48;100.00
21431;BME280;10876;49.038;10.608;2023-05-08T06:50:54;99527.72;;;12.54;100.00
21431;BME280;10876;49.038;10.608;2023-05-08T06:53:22;99524.66;;;12.55;100.00
21431;BME280;10876;49.038;10.608;2023-05-08T06:55:51;99525.06;;;12.62;100.00
21431;BME280;10876;49.038;10.608;2023-05-08T06:58:18;99524.25;;;12.48;100.00
21431;BME280;10876;49.038;10.608;2023-05-08T07:00:45;99524.66;;;12.55;100.00
21431;BME280;10876;49.038;10.608;2023-05-08T07:03:12;99528.69;;;12.44;100.00
21431;BME280;10876;49.038;10.608;2023-05-08T07:05:41;99527.91;;;12.57;100.00
21431;BME280;10876;49.038;10.608;2023-05-08T07:08:08;99506.13;;;12.61;100.00
21431;BME280;10876;49.038;10.608;2023-05-08T07:10:35;99511.22;;;12.68;100.00
21431;BME280;10876;49.038;10.608;2023-05-08T07:13:02;99498.19;;;12.59;100.00
21431;BME280;10876;49.038;10.608;2023-05-08T07:15:30;99485.75;;;12.76;100.00
21431;BME280;10876;49.038;10.608;2023-05-08T07:17:57;99486.78;;;12.66;100.00
21431;BME280;10876;49.038;10.608;2023-05-08T07:20:25;99486.97;;;12.70;100.00
21431;BME280;10876;49.038;10.608;2023-05-08T07:22:54;99489.72;;;12.70;100.00
21431;BME280;10876;49.038;10.608;2023-05-08T07:25:21;99489.25;;;12.68;100.00
21431;BME280;10876;49.038;10.608;2023-05-08T07:27:48;99475.38;;;12.73;100.00
21431;BME280;10876;49.038;10.608;2023-05-08T07:30:15;99483.72;;;12.81;100.00
21431;BME280;10876;49.038;10.608;2023-05-08T07:32:42;99480.56;;;12.88;100.00
21431;BME280;10876;49.038;10.608;2023-05-08T07:35:11;99482.28;;;12.84;100.00
21431;BME280;10876;49.038;10.608;2023-05-08T07:37:38;99482.81;;;12.86;100.00
21431;BME280;10876;49.038;10.608;2023-05-08T07:40:07;99479.44;;;12.89;100.00
21431;BME280;10876;49.038;10.608;2023-05-08T07:42:38;99481.06;;;12.90;100.00
21431;BME280;10876;49.038;10.608;2023-05-08T07:45:07;99473.84;;;12.94;100.00
21431;BME280;10876;49.038;10.608;2023-05-08T07:47:34;99471.25;;;13.12;100.00
21431;BME280;10876;49.038;10.608;2023-05-08T07:50:06;99462.13;;;13.02;100.00
21431;BME280;10876;49.038;10.608;2023-05-08T07:52:33;99462.09;;;13.16;100.00
21431;BME280;10876;49.038;10.608;2023-05-08T07:55:00;99459.31;;;13.30;100.00
21431;BME280;10876;49.038;10.608;2023-05-08T07:57:35;99454.50;;;13.22;100.00
21431;BME280;10876;49.038;10.608;2023-05-08T08:00:02;99453.69;;;13.21;100.00
21431;BME280;10876;49.038;10.608;2023-05-08T08:02:29;99456.34;;;13.40;100.00
21431;BME280;10876;49.038;10.608;2023-05-08T08:04:56;99455.09;;;13.46;100.00
21431;BME280;10876;49.038;10.608;2023-05-08T08:07:23;99446.38;;;13.53;100.00
21431;BME280;10876;49.038;10.608;2023-05-08T08:09:50;99442.06;;;13.38;100.00
21431;BME280;10876;49.038;10.608;2023-05-08T08:12:17;99435.31;;;13.44;100.00
21431;BME280;10876;49.038;10.608;2023-05-08T08:14:47;99424.69;;;13.29;100.00
21431;BME280;10876;49.038;10.608;2023-05-08T08:17:14;99409.06;;;13.24;100.00
21431;BME280;10876;49.038;10.608;2023-05-08T08:19:41;99398.94;;;13.11;100.00
21431;BME280;10876;49.038;10.608;2023-05-08T08:22:08;99394.41;;;13.29;100.00
21431;BME280;10876;49.038;10.608;2023-05-08T08:24:35;99391.16;;;13.27;100.00
21431;BME280;10876;49.038;10.608;2023-05-08T08:27:02;99386.00;;;13.12;100.00
21431;BME280;10876;49.038;10.608;2023-05-08T08:29:29;99391.59;;;13.06;100.00
21431;BME280;10876;49.038;10.608;2023-05-08T08:31:57;99386.34;;;13.19;100.00
21431;BME280;10876;49.038;10.608;2023-05-08T08:34:25;99385.88;;;13.17;100.00
21431;BME280;10876;49.038;10.608;2023-05-08T08:36:52;99372.47;;;13.01;100.00
21431;BME280;10876;49.038;10.608;2023-05-08T08:39:19;99370.59;;;12.88;100.00
21431;BME280;10876;49.038;10.608;2023-05-08T08:41:47;99358.38;;;12.80;100.00
21431;BME280;10876;49.038;10.608;2023-05-08T08:44:14;99359.06;;;12.86;100.00
21431;BME280;10876;49.038;10.608;2023-05-08T08:46:49;99364.72;;;13.03;100.00
21431;BME280;10876;49.038;10.608;2023-05-08T08:49:25;99347.78;;;13.10;100.00
21431;BME280;10876;49.038;10.608;2023-05-08T08:52:01;99341.47;;;13.10;100.00
21431;BME280;10876;49.038;10.608;2023-05-08T08:54:32;99349.59;;;13.15;100.00
21431;BME280;10876;49.038;10.608;2023-05-08T08:57:04;99340.09;;;13.21;100.00
21431;BME280;10876;49.038;10.608;2023-05-08T08:59:32;99329.59;;;13.23;100.00
21431;BME280;10876;49.038;10.608;2023-05-08T09:02:05;99338.56;;;13.28;100.00
21431;BME280;10876;49.038;10.608;2023-05-08T09:04:36;99340.75;;;13.40;100.00
21431;BME280;10876;49.038;10.608;2023-05-08T09:07:03;99328.72;;;13.36;100.00
21431;BME280;10876;49.038;10.608;2023-05-08T09:09:33;99326.50;;;13.38;100.00
21431;BME280;10876;49.038;10.608;2023-05-08T09:12:02;99321.34;;;13.23;100.00
21431;BME280;10876;49.038;10.608;2023-05-08T09:14:32;99317.47;;;13.24;100.00
21431;BME280;10876;49.038;10.608;2023-05-08T09:16:59;99304.13;;;13.31;100.00
21431;BME280;10876;49.038;10.608;2023-05-08T09:19:27;99305.22;;;13.07;100.00
21431;BME280;10876;49.038;10.608;2023-05-08T09:21:58;99300.59;;;12.94;100.00
21431;BME280;10876;49.038;10.608;2023-05-08T09:24:25;99304.97;;;12.95;100.00
21431;BME280;10876;49.038;10.608;2023-05-08T09:27:19;99302.91;;;13.01;100.00
21431;BME280;10876;49.038;10.608;2023-05-08T09:29:59;99292.97;;;13.14;100.00
21431;BME280;10876;49.038;10.608;2023-05-08T09:32:27;99294.84;;;13.27;100.00
21431;BME280;10876;49.038;10.608;2023-05-08T09:34:54;99310.34;;;13.45;100.00
21431;BME280;10876;49.038;10.608;2023-05-08T09:37:24;99304.34;;;13.43;100.00
21431;BME280;10876;49.038;10.608;2023-05-08T09:39:51;99304.56;;;13.56;100.00
21431;BME280;10876;49.038;10.608;2023-05-08T09:42:18;99300.47;;;13.44;100.00
21431;BME280;10876;49.038;10.608;2023-05-08T09:44:46;99298.28;;;13.64;100.00
21431;BME280;10876;49.038;10.608;2023-05-08T09:47:15;99295.28;;;13.74;100.00
21431;BME280;10876;49.038;10.608;2023-05-08T09:49:55;99296.38;;;13.73;100.00
21431;BME280;10876;49.038;10.608;2023-05-08T09:52:24;99293.44;;;13.61;100.00
21431;BME280;10876;49.038;10.608;2023-05-08T09:54:58;99287.28;;;13.64;100.00
21431;BME280;10876;49.038;10.608;2023-05-08T09:57:25;99279.03;;;13.64;100.00
21431;BME280;10876;49.038;10.608;2023-05-08T10:00:03;99284.25;;;13.74;100.00
21431;BME280;10876;49.038;10.608;2023-05-08T10:02:30;99280.97;;;13.63;100.00
21431;BME280;10876;49.038;10.608;2023-05-08T10:04:58;99270.56;;;13.51;100.00
21431;BME280;10876;49.038;10.608;2023-05-08T10:07:30;99290.94;;;13.50;100.00
21431;BME280;10876;49.038;10.608;2023-05-08T10:09:59;99299.88;;;13.56;100.00
21431;BME280;10876;49.038;10.608;2023-05-08T10:12:27;99292.44;;;13.57;100.00
21431;BME280;10876;49.038;10.608;2023-05-08T10:14:55;99287.75;;;13.57;100.00
21431;BME280;10876;49.038;10.608;2023-05-08T10:17:25;99281.56;;;13.51;100.00
21431;BME280;10876;49.038;10.608;2023-05-08T10:19:58;99281.03;;;13.41;100.00
21431;BME280;10876;49.038;10.608;2023-05-08T10:22:27;99284.31;;;13.51;100.00
21431;BME280;10876;49.038;10.608;2023-05-08T10:24:58;99274.78;;;13.58;100.00
21431;BME280;10876;49.038;10.608;2023-05-08T10:27:30;99290.22;;;13.67;100.00
21431;BME280;10876;49.038;10.608;2023-05-08T10:30:02;99289.53;;;13.62;100.00
21431;BME280;10876;49.038;10.608;2023-05-08T10:32:37;99289.53;;;13.62;100.00
21431;BME280;10876;49.038;10.608;2023-05-08T10:35:08;99280.94;;;13.55;100.00
21431;BME280;10876;49.038;10.608;2023-05-08T10:37:37;99290.53;;;13.66;100.00
21431;BME280;10876;49.038;10.608;2023-05-08T10:40:06;99288.50;;;13.80;100.00
21431;BME280;10876;49.038;10.608;2023-05-08T10:42:34;99289.66;;;13.88;100.00
21431;BME280;10876;49.038;10.608;2023-05-08T10:45:03;99291.13;;;13.85;100.00
21431;BME280;10876;49.038;10.608;2023-05-08T10:47:39;99288.66;;;13.84;100.00
21431;BME280;10876;49.038;10.608;2023-05-08T10:50:21;99291.91;;;13.86;100.00
21431;BME280;10876;49.038;10.608;2023-05-08T10:52:56;99292.09;;;13.89;100.00
21431;BME280;10876;49.038;10.608;2023-05-08T10:55:30;99299.06;;;13.95;100.00
21431;BME280;10876;49.038;10.608;2023-05-08T10:58:02;99295.44;;;13.78;100.00
21431;BME280;10876;49.038;10.608;2023-05-08T11:00:31;99299.72;;;14.01;100.00
21431;BME280;10876;49.038;10.608;2023-05-08T11:03:04;99291.94;;;13.94;100.00
21431;BME280;10876;49.038;10.608;2023-05-08T11:05:44;99288.34;;;13.85;100.00
21431;BME280;10876;49.038;10.608;2023-05-08T11:08:13;99288.13;;;13.73;100.00
21431;BME280;10876;49.038;10.608;2023-05-08T11:10:46;99289.84;;;13.91;100.00
21431;BME280;10876;49.038;10.608;2023-05-08T11:13:15;99288.84;;;13.87;100.00
21431;BME280;10876;49.038;10.608;2023-05-08T11:15:48;99293.91;;;13.94;100.00
21431;BME280;10876;49.038;10.608;2023-05-08T11:18:16;99288.19;;;13.90;100.00
21431;BME280;10876;49.038;10.608;2023-05-08T11:20:54;99292.63;;;14.00;100.00
21431;BME280;10876;49.038;10.608;2023-05-08T11:23:22;99296.38;;;14.13;100.00
21431;BME280;10876;49.038;10.608;2023-05-08T11:25:59;99293.91;;;13.94;100.00
21431;BME280;10876;49.038;10.608;2023-05-08T11:28:27;99295.03;;;14.02;100.00
21431;BME280;10876;49.038;10.608;2023-05-08T11:31:01;99286.13;;;14.05;100.00
21431;BME280;10876;49.038;10.608;2023-05-08T11:33:30;99292.78;;;14.04;100.00
21431;BME280;10876;49.038;10.608;2023-05-08T11:35:58;99285.50;;;14.08;100.00
21431;BME280;10876;49.038;10.608;2023-05-08T11:38:28;99286.16;;;14.22;100.00
21431;BME280;10876;49.038;10.608;2023-05-08T11:41:07;99294.28;;;14.18;100.00
21431;BME280;10876;49.038;10.608;2023-05-08T11:43:57;99280.84;;;14.17;100.00
21431;BME280;10876;49.038;10.608;2023-05-08T11:46:35;99276.94;;;14.18;100.00
21431;BME280;10876;49.038;10.608;2023-05-08T11:49:04;99279.22;;;14.33;100.00
21431;BME280;10876;49.038;10.608;2023-05-08T11:51:31;99274.06;;;14.40;100.00
21431;BME280;10876;49.038;10.608;2023-05-08T11:54:02;99278.66;;;14.54;100.00
21431;BME280;10876;49.038;10.608;2023-05-08T11:56:30;99270.78;;;14.21;100.00
21431;BME280;10876;49.038;10.608;2023-05-08T11:59:02;99273.59;;;14.56;100.00
21431;BME280;10876;49.038;10.608;2023-05-08T12:01:29;99262.72;;;14.51;100.00
21431;BME280;10876;49.038;10.608;2023-05-08T12:04:00;99260.09;;;14.28;100.00
21431;BME280;10876;49.038;10.608;2023-05-08T12:06:28;99273.09;;;14.45;100.00
21431;BME280;10876;49.038;10.608;2023-05-08T12:08:56;99262.44;;;14.61;100.00
21431;BME280;10876;49.038;10.608;2023-05-08T12:11:24;99266.00;;;14.70;100.00
21431;BME280;10876;49.038;10.608;2023-05-08T12:13:53;99276.69;;;14.80;100.00
21431;BME280;10876;49.038;10.608;2023-05-08T12:16:21;99257.91;;;14.65;100.00
21431;BME280;10876;49.038;10.608;2023-05-08T12:18:50;99250.25;;;14.53;100.00
21431;BME280;10876;49.038;10.608;2023-05-08T12:21:17;99252.03;;;14.58;100.00
21431;BME280;10876;49.038;10.608;2023-05-08T12:23:44;99253.84;;;14.62;100.00
21431;BME280;10876;49.038;10.608;2023-05-08T12:26:11;99254.00;;;14.66;100.00
21431;BME280;10876;49.038;10.608;2023-05-08T12:28:38;99258.53;;;14.62;100.00
21431;BME280;10876;49.038;10.608;2023-05-08T12:31:07;99249.94;;;14.63;100.00
21431;BME280;10876;49.038;10.608;2023-05-08T12:33:34;99254.00;;;14.66;100.00
21431;BME280;10876;49.038;10.608;2023-05-08T12:36:03;99242.44;;;14.29;100.00
21431;BME280;10876;49.038;10.608;2023-05-08T12:38:31;99255.56;;;14.50;100.00
21431;BME280;10876;49.038;10.608;2023-05-08T12:40:58;99249.75;;;14.42;100.00
21431;BME280;10876;49.038;10.608;2023-05-08T12:43:33;99252.50;;;14.42;100.00
21431;BME280;10876;49.038;10.608;2023-05-08T12:46:00;99248.09;;;14.41;100.00
21431;BME280;10876;49.038;10.608;2023-05-08T12:48:30;99250.22;;;14.45;100.00
21431;BME280;10876;49.038;10.608;2023-05-08T12:51:01;99254.31;;;14.56;100.00
21431;BME280;10876;49.038;10.608;2023-05-08T12:53:29;99256.22;;;14.47;100.00
21431;BME280;10876;49.038;10.608;2023-05-08T12:56:00;99248.63;;;14.52;100.00
21431;BME280;10876;49.038;10.608;2023-05-08T12:58:29;99252.19;;;14.61;100.00
21431;BME280;10876;49.038;10.608;2023-05-08T13:01:07;99257.06;;;14.64;100.00
21431;BME280;10876;49.038;10.608;2023-05-08T13:03:39;99251.09;;;14.71;100.00
21431;BME280;10876;49.038;10.608;2023-05-08T13:06:17;99251.38;;;14.78;100.00
21431;BME280;10876;49.038;10.608;2023-05-08T13:08:51;99248.78;;;15.08;100.00
21431;BME280;10876;49.038;10.608;2023-05-08T13:11:27;99241.31;;;15.00;100.00
21431;BME280;10876;49.038;10.608;2023-05-08T13:13:54;99232.53;;;14.98;100.00
21431;BME280;10876;49.038;10.608;2023-05-08T13:16:21;99240.66;;;15.03;100.00
21431;BME280;10876;49.038;10.608;2023-05-08T13:18:49;99236.63;;;14.92;100.00
21431;BME280;10876;49.038;10.608;2023-05-08T13:21:16;99237.41;;;15.01;100.00
21431;BME280;10876;49.038;10.608;2023-05-08T13:23:43;99223.78;;;14.96;100.00
21431;BME280;10876;49.038;10.608;2023-05-08T13:26:10;99228.19;;;14.97;100.00
21431;BME280;10876;49.038;10.608;2023-05-08T13:28:37;99225.06;;;15.07;100.00
21431;BME280;10876;49.038;10.608;2023-05-08T13:31:04;99224.75;;;15.00;100.00
21431;BME280;10876;49.038;10.608;2023-05-08T13:33:31;99220.84;;;15.01;100.00
21431;BME280;10876;49.038;10.608;2023-05-08T13:35:59;99227.16;;;15.10;100.00
21431;BME280;10876;49.038;10.608;2023-05-08T13:38:26;99214.03;;;15.07;100.00
21431;BME280;10876;49.038;10.608;2023-05-08T13:40:53;99217.72;;;15.20;100.00
21431;BME280;10876;49.038;10.608;2023-05-08T13:43:20;99217.09;;;15.14;100.00
21431;BME280;10876;49.038;10.608;2023-05-08T13:45:47;99221.31;;;15.20;100.00
21431;BME280;10876;49.038;10.608;2023-05-08T13:48:14;99210.28;;;15.12;100.00
21431;BME280;10876;49.038;10.608;2023-05-08T13:50:41;99219.03;;;15.22;100.00
21431;BME280;10876;49.038;10.608;2023-05-08T13:53:09;99217.72;;;15.20;100.00
21431;BME280;10876;49.038;10.608;2023-05-08T13:55:36;99220.16;;;15.21;100.00
21431;BME280;10876;49.038;10.608;2023-05-08T13:58:03;99224.22;;;15.24;100.00
21431;BME280;10876;49.038;10.608;2023-05-08T14:00:30;99223.41;;;15.23;100.00
21431;BME280;10876;49.038;10.608;2023-05-08T14:02:58;99226.84;;;15.12;100.00
21431;BME280;10876;49.038;10.608;2023-05-08T14:05:25;99227.50;;;15.08;100.00
21431;BME280;10876;49.038;10.608;2023-05-08T14:07:52;99229.41;;;15.25;100.00
21431;BME280;10876;49.038;10.608;2023-05-08T14:10:21;99219.19;;;15.17;100.00
21431;BME280;10876;49.038;10.608;2023-05-08T14:12:48;99230.25;;;15.17;100.00
21431;BME280;10876;49.038;10.608;2023-05-08T14:15:15;99231.19;;;15.21;100.00
21431;BME280;10876;49.038;10.608;2023-05-08T14:17:42;99220.16;;;15.21;100.00
21431;BME280;10876;49.038;10.608;2023-05-08T14:20:10;99221.78;;;15.22;100.00
21431;BME280;10876;49.038;10.608;2023-05-08T14:22:37;99217.50;;;15.33;100.00
21431;BME280;10876;49.038;10.608;2023-05-08T14:25:05;99220.28;;;15.25;100.00
21431;BME280;10876;49.038;10.608;2023-05-08T14:27:33;99217.50;;;15.33;100.00
21431;BME280;10876;49.038;10.608;2023-05-08T14:30:00;99216.66;;;15.42;100.00
21431;BME280;10876;49.038;10.608;2023-05-08T14:32:28;99207.06;;;15.48;100.00
21431;BME280;10876;49.038;10.608;2023-05-08T14:34:55;99207.00;;;15.65;100.00
21431;BME280;10876;49.038;10.608;2023-05-08T14:37:21;99205.38;;;15.64;100.00
21431;BME280;10876;49.038;10.608;2023-05-08T14:39:48;99192.84;;;15.67;100.00
21431;BME280;10876;49.038;10.608;2023-05-08T14:42:18;99191.59;;;15.55;100.00
21431;BME280;10876;49.038;10.608;2023-05-08T14:44:47;99182.03;;;15.53;100.00
21431;BME280;10876;49.038;10.608;2023-05-08T14:47:14;99175.84;;;15.56;100.00
21431;BME280;10876;49.038;10.608;2023-05-08T14:49:40;99164.13;;;15.59;100.00
21431;BME280;10876;49.038;10.608;2023-05-08T14:52:07;99157.94;;;15.62;100.00
21431;BME280;10876;49.038;10.608;2023-05-08T17:03:32;99153.97;;;15.81;100.00
21431;BME280;10876;49.038;10.608;2023-05-08T17:05:58;99159.69;;;15.75;100.00
21431;BME280;10876;49.038;10.608;2023-05-08T17:08:25;99190.59;;;15.69;100.00
21431;BME280;10876;49.038;10.608;2023-05-08T17:10:52;99190.44;;;15.65;100.00